Other Surface Observations
Issued by NWS Missoula, MT

Home | Current Version | Previous Version | Text Only | Print | Product List | Glossary On
Versions: 1 2 3 4 5 6 7 8 9 10 11 12 13 14 15 16 17 18 19 20 21 22 23 24 25 26 27 28 29 30 31 32 33 34 35 36 37 38 39 40 41 42 43 44 45 46 47 48 49 50
000
SXUS55 KMSO 232243
OSOMSO
MONTANA AWOS SUMMARY
NATIONAL WEATHER SERVICE MISSOULA MT
443 PM MDT WED JUL 23 2014

Montana AWOS Reports

LAUREL      |K6S8 232235Z AUTO 00000KT 40SM 32/13 A3000 RMK AO1 T03170133
ROUNDUP     |KRPX 232235Z AUTO 00000KT 40SM 32/14 A2992 RMK AO1 T03220139
MALTA       |KM75 232235Z AUTO 09010G19KT 40SM 33/15 A2994 RMK AO1 T03330150




USA.gov is the U.S. government's official web portal to all federal, state and local government web resources and services.